Nrp Hidra — CTIL — position and weather

sailwx.info

Track history (hours):
 
Tides and Currents Weather Stations Pressure Air Temp Water Temp Dewpoint Dewpoint Depression Visibility Wind Speed Wind Dir Waves Ship Positions

Nrp Hidra

Last reported at 2017-Oct-17 11:08 UTC. Time now 2017-Oct-18 07:14 UTC.
Position N 38°40' W 009°18'.

Length 27 m; draft 2.8 m.

Type: Military. MMSI: 263125000.

Date/timePositionNaut miles runAvg speedWind from/ knotsBaromVisibWave heightAir tempDewpointWater temp
2017-Oct-17 11:08N 38°40' W 009°18'1 7.9
2017-Oct-17 10:58N 38°41' W 009°17'3 6.9
2017-Oct-17 10:30N 38°41' W 009°13'3 6.4
2017-Oct-17 10:00N 38°42' W 009°09'2 3.3
2017-Oct-17 09:29N 38°43' W 009°07'1 1.1
2017-Oct-17 09:00N 38°42' W 009°07'1 1.5
2017-Oct-17 08:31N 38°42' W 009°08'2 3.4
2017-Oct-17 07:59N 38°40' W 009°09'0 0.0
2017-Oct-17 07:30N 38°40' W 009°09'  
Track history (hours):
 
Tides and Currents Weather Stations Pressure Air Temp Water Temp Dewpoint Dewpoint Depression Visibility Wind Speed Wind Dir Waves Ship Positions

Nrp Hidra

Last reported at 2017-Oct-17 11:08 UTC. Time now 2017-Oct-18 07:14 UTC.
Position N 38°40' W 009°18'.

Length 27 m; draft 2.8 m.

Type: Military. MMSI: 263125000.

Date/timePositionNaut miles runAvg speedWind from/ knotsBaromVisibWave heightAir tempDewpointWater temp
2017-Oct-17 11:08N 38°40' W 009°18'1 7.9
2017-Oct-17 10:58N 38°41' W 009°17'3 6.9
2017-Oct-17 10:30N 38°41' W 009°13'3 6.4
2017-Oct-17 10:00N 38°42' W 009°09'2 3.3
2017-Oct-17 09:29N 38°43' W 009°07'1 1.1
2017-Oct-17 09:00N 38°42' W 009°07'1 1.5
2017-Oct-17 08:31N 38°42' W 009°08'2 3.4
2017-Oct-17 07:59N 38°40' W 009°09'0 0.0
2017-Oct-17 07:30N 38°40' W 009°09'  

Dump ship's entire track history